sensor_id;sensor_type;location;lat;lon;timestamp;pressure;altitude;pressure_sealevel;temperature;humidity
51687;BME280;37774;52.192;4.584;2022-08-19T00:01:27;99471.06;;;17.21;100.00
51687;BME280;37774;52.192;4.584;2022-08-19T00:03:55;99495.50;;;17.38;100.00
51687;BME280;37774;52.192;4.584;2022-08-19T00:06:22;99479.09;;;17.34;100.00
51687;BME280;37774;52.192;4.584;2022-08-19T00:08:48;99444.66;;;17.25;100.00
51687;BME280;37774;52.192;4.584;2022-08-19T00:11:16;99453.03;;;17.31;100.00
51687;BME280;37774;52.192;4.584;2022-08-19T00:13:43;99428.72;;;16.97;100.00
51687;BME280;37774;52.192;4.584;2022-08-19T00:16:12;99453.44;;;17.23;100.00
51687;BME280;37774;52.192;4.584;2022-08-19T00:18:39;99431.00;;;17.03;100.00
51687;BME280;37774;52.192;4.584;2022-08-19T00:21:05;99469.19;;;17.23;100.00
51687;BME280;37774;52.192;4.584;2022-08-19T00:23:35;99342.19;;;16.33;100.00
51687;BME280;37774;52.192;4.584;2022-08-19T00:26:02;99469.56;;;17.17;100.00
51687;BME280;37774;52.192;4.584;2022-08-19T00:28:29;99465.66;;;16.92;100.00
51687;BME280;37774;52.192;4.584;2022-08-19T00:30:56;99468.38;;;17.07;100.00
51687;BME280;37774;52.192;4.584;2022-08-19T00:33:25;99462.22;;;17.08;100.00
51687;BME280;37774;52.192;4.584;2022-08-19T00:35:51;99467.81;;;17.02;100.00
51687;BME280;37774;52.192;4.584;2022-08-19T00:38:18;99427.59;;;16.85;100.00
51687;BME280;37774;52.192;4.584;2022-08-19T00:40:47;99332.97;;;16.26;100.00
51687;BME280;37774;52.192;4.584;2022-08-19T00:43:19;99388.66;;;16.77;100.00
51687;BME280;37774;52.192;4.584;2022-08-19T00:45:47;99351.47;;;16.71;100.00
51687;BME280;37774;52.192;4.584;2022-08-19T00:48:15;99110.06;;;15.34;100.00
51687;BME280;37774;52.192;4.584;2022-08-19T00:50:45;99021.88;;;14.72;100.00
51687;BME280;37774;52.192;4.584;2022-08-19T00:53:15;99240.94;;;16.00;100.00
51687;BME280;37774;52.192;4.584;2022-08-19T00:55:46;99265.25;;;15.86;100.00
51687;BME280;37774;52.192;4.584;2022-08-19T00:58:16;99293.28;;;15.84;100.00
51687;BME280;37774;52.192;4.584;2022-08-19T01:00:44;99421.50;;;16.85;100.00
51687;BME280;37774;52.192;4.584;2022-08-19T01:03:17;99361.78;;;16.58;100.00
51687;BME280;37774;52.192;4.584;2022-08-19T01:05:47;99335.78;;;16.69;100.00
51687;BME280;37774;52.192;4.584;2022-08-19T01:08:16;99303.53;;;16.83;100.00
51687;BME280;37774;52.192;4.584;2022-08-19T01:10:46;99231.44;;;16.60;100.00
51687;BME280;37774;52.192;4.584;2022-08-19T01:13:15;99211.53;;;16.72;100.00
51687;BME280;37774;52.192;4.584;2022-08-19T01:15:45;99171.31;;;16.57;100.00
51687;BME280;37774;52.192;4.584;2022-08-19T01:18:15;98983.88;;;15.29;100.00
51687;BME280;37774;52.192;4.584;2022-08-19T01:20:43;99224.16;;;16.79;100.00
51687;BME280;37774;52.192;4.584;2022-08-19T01:23:12;99051.88;;;15.61;100.00
51687;BME280;37774;52.192;4.584;2022-08-19T01:25:42;98995.53;;;15.39;100.00
51687;BME280;37774;52.192;4.584;2022-08-19T01:28:17;99132.44;;;15.88;100.00
51687;BME280;37774;52.192;4.584;2022-08-19T01:30:45;99248.25;;;16.72;100.00
51687;BME280;37774;52.192;4.584;2022-08-19T01:33:12;99263.44;;;16.81;100.00
51687;BME280;37774;52.192;4.584;2022-08-19T01:35:39;99247.94;;;16.76;100.00
51687;BME280;37774;52.192;4.584;2022-08-19T01:38:10;99257.22;;;16.68;100.00
51687;BME280;37774;52.192;4.584;2022-08-19T01:40:39;99247.75;;;16.65;100.00
51687;BME280;37774;52.192;4.584;2022-08-19T01:43:07;99122.38;;;15.96;100.00
51687;BME280;37774;52.192;4.584;2022-08-19T01:45:35;99321.53;;;16.59;100.00
51687;BME280;37774;52.192;4.584;2022-08-19T01:48:03;99199.00;;;16.46;100.00
51687;BME280;37774;52.192;4.584;2022-08-19T01:50:32;99204.66;;;16.69;100.00
51687;BME280;37774;52.192;4.584;2022-08-19T01:53:00;99211.75;;;16.53;100.00
51687;BME280;37774;52.192;4.584;2022-08-19T01:55:27;99058.94;;;15.91;100.00
51687;BME280;37774;52.192;4.584;2022-08-19T01:57:57;99175.78;;;16.55;100.00
51687;BME280;37774;52.192;4.584;2022-08-19T02:00:26;99146.78;;;16.72;100.00
51687;BME280;37774;52.192;4.584;2022-08-19T02:02:54;99152.13;;;16.71;100.00
51687;BME280;37774;52.192;4.584;2022-08-19T02:05:22;99064.59;;;16.14;100.00
51687;BME280;37774;52.192;4.584;2022-08-19T02:07:49;99128.03;;;16.49;100.00
51687;BME280;37774;52.192;4.584;2022-08-19T02:10:19;99175.44;;;16.61;100.00
51687;BME280;37774;52.192;4.584;2022-08-19T02:12:46;99162.44;;;16.74;100.00
51687;BME280;37774;52.192;4.584;2022-08-19T02:15:16;99172.72;;;16.48;100.00
51687;BME280;37774;52.192;4.584;2022-08-19T02:17:44;99149.88;;;16.50;100.00
51687;BME280;37774;52.192;4.584;2022-08-19T02:20:11;99132.72;;;16.14;100.00
51687;BME280;37774;52.192;4.584;2022-08-19T02:22:39;99216.28;;;16.65;100.00
51687;BME280;37774;52.192;4.584;2022-08-19T02:25:07;99219.19;;;16.60;100.00
51687;BME280;37774;52.192;4.584;2022-08-19T02:27:35;99229.66;;;16.60;100.00
51687;BME280;37774;52.192;4.584;2022-08-19T02:30:03;99247.28;;;16.58;100.00
51687;BME280;37774;52.192;4.584;2022-08-19T02:32:31;99181.41;;;16.18;100.00
51687;BME280;37774;52.192;4.584;2022-08-19T02:34:58;99246.34;;;16.59;100.00
51687;BME280;37774;52.192;4.584;2022-08-19T02:37:25;99258.41;;;16.62;100.00
51687;BME280;37774;52.192;4.584;2022-08-19T02:40:10;99277.63;;;16.62;100.00
51687;BME280;37774;52.192;4.584;2022-08-19T02:42:36;99237.25;;;16.34;100.00
51687;BME280;37774;52.192;4.584;2022-08-19T02:45:04;99047.34;;;15.16;100.00
51687;BME280;37774;52.192;4.584;2022-08-19T02:47:33;99255.25;;;16.41;100.00
51687;BME280;37774;52.192;4.584;2022-08-19T02:50:00;99287.34;;;16.60;100.00
51687;BME280;37774;52.192;4.584;2022-08-19T02:52:27;99039.75;;;14.80;100.00
51687;BME280;37774;52.192;4.584;2022-08-19T02:54:54;99125.00;;;15.96;100.00
51687;BME280;37774;52.192;4.584;2022-08-19T02:57:23;99227.13;;;16.59;100.00
51687;BME280;37774;52.192;4.584;2022-08-19T02:59:50;99268.47;;;16.70;100.00
51687;BME280;37774;52.192;4.584;2022-08-19T03:02:16;99222.84;;;16.72;100.00
51687;BME280;37774;52.192;4.584;2022-08-19T03:04:45;99050.06;;;15.77;100.00
51687;BME280;37774;52.192;4.584;2022-08-19T03:07:13;99139.06;;;16.40;100.00
51687;BME280;37774;52.192;4.584;2022-08-19T03:09:40;99243.28;;;16.82;100.00
51687;BME280;37774;52.192;4.584;2022-08-19T03:12:08;99037.47;;;15.22;100.00
51687;BME280;37774;52.192;4.584;2022-08-19T03:14:35;99173.09;;;16.56;100.00
51687;BME280;37774;52.192;4.584;2022-08-19T03:17:03;99149.41;;;16.72;100.00
51687;BME280;37774;52.192;4.584;2022-08-19T03:19:31;99143.38;;;16.56;100.00
51687;BME280;37774;52.192;4.584;2022-08-19T03:21:59;99143.88;;;16.48;100.00
51687;BME280;37774;52.192;4.584;2022-08-19T03:24:26;99077.63;;;16.15;100.00
51687;BME280;37774;52.192;4.584;2022-08-19T03:26:54;99179.00;;;16.60;100.00
51687;BME280;37774;52.192;4.584;2022-08-19T03:29:22;99215.25;;;16.68;100.00
51687;BME280;37774;52.192;4.584;2022-08-19T03:31:49;99190.88;;;16.51;100.00
51687;BME280;37774;52.192;4.584;2022-08-19T03:34:19;99247.19;;;16.74;100.00
51687;BME280;37774;52.192;4.584;2022-08-19T03:36:47;99212.47;;;16.40;100.00
51687;BME280;37774;52.192;4.584;2022-08-19T03:39:16;99234.19;;;16.42;100.00
51687;BME280;37774;52.192;4.584;2022-08-19T03:41:44;99306.13;;;16.69;100.00
51687;BME280;37774;52.192;4.584;2022-08-19T03:44:12;99315.09;;;16.64;100.00
51687;BME280;37774;52.192;4.584;2022-08-19T03:46:38;99332.00;;;16.59;100.00
51687;BME280;37774;52.192;4.584;2022-08-19T03:49:05;99340.38;;;16.65;100.00
51687;BME280;37774;52.192;4.584;2022-08-19T03:51:34;99326.88;;;16.41;100.00
51687;BME280;37774;52.192;4.584;2022-08-19T03:54:03;99358.50;;;16.54;100.00
51687;BME280;37774;52.192;4.584;2022-08-19T03:56:33;99369.25;;;16.49;100.00
51687;BME280;37774;52.192;4.584;2022-08-19T03:58:59;99301.53;;;15.94;100.00
51687;BME280;37774;52.192;4.584;2022-08-19T04:01:28;99400.63;;;16.51;100.00
51687;BME280;37774;52.192;4.584;2022-08-19T04:03:56;99405.88;;;16.35;100.00
51687;BME280;37774;52.192;4.584;2022-08-19T04:06:25;99455.09;;;16.46;100.00
51687;BME280;37774;52.192;4.584;2022-08-19T04:08:53;99471.06;;;16.41;100.00
51687;BME280;37774;52.192;4.584;2022-08-19T04:11:22;99494.91;;;16.36;100.00
51687;BME280;37774;52.192;4.584;2022-08-19T04:13:52;99500.13;;;16.36;100.00
51687;BME280;37774;52.192;4.584;2022-08-19T04:16:19;99302.22;;;14.95;100.00
51687;BME280;37774;52.192;4.584;2022-08-19T04:18:47;99473.09;;;15.67;100.00
51687;BME280;37774;52.192;4.584;2022-08-19T04:21:17;99583.81;;;16.41;100.00
51687;BME280;37774;52.192;4.584;2022-08-19T04:23:44;99609.19;;;16.23;100.00
51687;BME280;37774;52.192;4.584;2022-08-19T04:26:13;99602.84;;;16.45;100.00
51687;BME280;37774;52.192;4.584;2022-08-19T04:28:41;99399.28;;;15.08;100.00
51687;BME280;37774;52.192;4.584;2022-08-19T04:31:13;99517.03;;;15.25;100.00
51687;BME280;37774;52.192;4.584;2022-08-19T04:33:40;99716.06;;;16.53;100.00
51687;BME280;37774;52.192;4.584;2022-08-19T04:36:08;99501.44;;;14.85;100.00
51687;BME280;37774;52.192;4.584;2022-08-19T04:38:35;99780.28;;;16.62;100.00
51687;BME280;37774;52.192;4.584;2022-08-19T04:41:03;99821.03;;;16.69;100.00
51687;BME280;37774;52.192;4.584;2022-08-19T04:43:47;99826.38;;;16.68;100.00
51687;BME280;37774;52.192;4.584;2022-08-19T04:46:15;99668.53;;;15.51;100.00
51687;BME280;37774;52.192;4.584;2022-08-19T04:48:42;99924.84;;;16.92;100.00
51687;BME280;37774;52.192;4.584;2022-08-19T04:51:11;99962.25;;;16.98;100.00
51687;BME280;37774;52.192;4.584;2022-08-19T04:53:40;100006.22;;;17.12;100.00
51687;BME280;37774;52.192;4.584;2022-08-19T04:56:08;100053.84;;;17.21;100.00
51687;BME280;37774;52.192;4.584;2022-08-19T04:58:37;100129.84;;;17.25;100.00
51687;BME280;37774;52.192;4.584;2022-08-19T05:01:04;100167.47;;;17.06;100.00
51687;BME280;37774;52.192;4.584;2022-08-19T05:03:33;99851.66;;;15.12;100.00
51687;BME280;37774;52.192;4.584;2022-08-19T05:06:04;100287.75;;;17.36;100.00
51687;BME280;37774;52.192;4.584;2022-08-19T05:08:33;100302.16;;;17.27;100.00
51687;BME280;37774;52.192;4.584;2022-08-19T05:11:00;100410.22;;;17.38;100.00
51687;BME280;37774;52.192;4.584;2022-08-19T05:13:28;100391.47;;;17.46;100.00
51687;BME280;37774;52.192;4.584;2022-08-19T05:15:56;100427.94;;;17.13;100.00
51687;BME280;37774;52.192;4.584;2022-08-19T05:18:23;100442.00;;;17.53;100.00
51687;BME280;37774;52.192;4.584;2022-08-19T05:21:16;100445.97;;;17.41;100.00
51687;BME280;37774;52.192;4.584;2022-08-19T05:24:01;100481.84;;;17.42;100.00
51687;BME280;37774;52.192;4.584;2022-08-19T05:26:28;100428.72;;;17.15;100.00
51687;BME280;37774;52.192;4.584;2022-08-19T05:28:55;100551.63;;;17.70;100.00
51687;BME280;37774;52.192;4.584;2022-08-19T05:31:21;100625.00;;;17.75;100.00
51687;BME280;37774;52.192;4.584;2022-08-19T05:33:48;100470.06;;;16.86;100.00
51687;BME280;37774;52.192;4.584;2022-08-19T05:36:17;100408.09;;;15.91;100.00
51687;BME280;37774;52.192;4.584;2022-08-19T05:38:45;100396.53;;;16.43;100.00
51687;BME280;37774;52.192;4.584;2022-08-19T05:41:14;100683.38;;;18.05;100.00
51687;BME280;37774;52.192;4.584;2022-08-19T05:43:42;100531.16;;;17.13;100.00
51687;BME280;37774;52.192;4.584;2022-08-19T05:46:16;100679.56;;;18.13;100.00
51687;BME280;37774;52.192;4.584;2022-08-19T05:48:45;100700.59;;;18.13;100.00
51687;BME280;37774;52.192;4.584;2022-08-19T05:51:12;100687.06;;;18.22;100.00
51687;BME280;37774;52.192;4.584;2022-08-19T05:53:40;100474.56;;;17.06;100.00
51687;BME280;37774;52.192;4.584;2022-08-19T05:56:09;100639.34;;;18.10;100.00
51687;BME280;37774;52.192;4.584;2022-08-19T05:58:38;100426.09;;;16.70;100.00
51687;BME280;37774;52.192;4.584;2022-08-19T06:01:10;100746.22;;;18.34;100.00
51687;BME280;37774;52.192;4.584;2022-08-19T06:03:37;100687.53;;;18.11;100.00
51687;BME280;37774;52.192;4.584;2022-08-19T06:06:05;100726.94;;;18.33;100.00
51687;BME280;37774;52.192;4.584;2022-08-19T06:08:33;100615.63;;;17.69;100.00
51687;BME280;37774;52.192;4.584;2022-08-19T06:11:14;100748.81;;;18.56;100.00
51687;BME280;37774;52.192;4.584;2022-08-19T06:13:42;100766.75;;;18.46;100.00
51687;BME280;37774;52.192;4.584;2022-08-19T06:16:09;100748.56;;;18.81;100.00
51687;BME280;37774;52.192;4.584;2022-08-19T06:18:36;100789.84;;;18.81;100.00
51687;BME280;37774;52.192;4.584;2022-08-19T06:21:03;100766.88;;;18.84;100.00
51687;BME280;37774;52.192;4.584;2022-08-19T06:23:30;100769.78;;;18.99;100.00
51687;BME280;37774;52.192;4.584;2022-08-19T06:25:57;100769.00;;;18.97;100.00
51687;BME280;37774;52.192;4.584;2022-08-19T06:28:25;100718.00;;;18.79;100.00
51687;BME280;37774;52.192;4.584;2022-08-19T06:30:52;100750.88;;;19.10;100.00
51687;BME280;37774;52.192;4.584;2022-08-19T06:33:18;100781.09;;;19.01;100.00
51687;BME280;37774;52.192;4.584;2022-08-19T06:35:45;100776.56;;;19.05;100.00
51687;BME280;37774;52.192;4.584;2022-08-19T06:38:12;100850.94;;;19.31;100.00
51687;BME280;37774;52.192;4.584;2022-08-19T06:40:39;100726.28;;;19.30;100.00
51687;BME280;37774;52.192;4.584;2022-08-19T06:43:06;100743.44;;;19.39;100.00
51687;BME280;37774;52.192;4.584;2022-08-19T06:45:36;100560.53;;;18.49;100.00
51687;BME280;37774;52.192;4.584;2022-08-19T06:48:03;100703.03;;;19.58;100.00
51687;BME280;37774;52.192;4.584;2022-08-19T06:50:30;100644.44;;;19.52;100.00
51687;BME280;37774;52.192;4.584;2022-08-19T06:52:57;100490.94;;;18.56;100.00
51687;BME280;37774;52.192;4.584;2022-08-19T06:55:24;100575.94;;;19.70;100.00
51687;BME280;37774;52.192;4.584;2022-08-19T06:57:54;100505.91;;;18.92;100.00
51687;BME280;37774;52.192;4.584;2022-08-19T07:00:21;100516.88;;;19.92;100.00
51687;BME280;37774;52.192;4.584;2022-08-19T07:02:49;100471.41;;;20.04;100.00
51687;BME280;37774;52.192;4.584;2022-08-19T07:05:15;100443.75;;;20.11;100.00
51687;BME280;37774;52.192;4.584;2022-08-19T07:07:43;100396.06;;;20.16;100.00
51687;BME280;37774;52.192;4.584;2022-08-19T07:10:09;100342.19;;;20.20;100.00
51687;BME280;37774;52.192;4.584;2022-08-19T07:12:37;100298.69;;;20.27;100.00
51687;BME280;37774;52.192;4.584;2022-08-19T07:15:05;100246.41;;;20.34;100.00
51687;BME280;37774;52.192;4.584;2022-08-19T07:17:34;100174.16;;;20.06;100.00
51687;BME280;37774;52.192;4.584;2022-08-19T07:20:06;100132.75;;;20.23;100.00
51687;BME280;37774;52.192;4.584;2022-08-19T07:22:33;100074.09;;;20.34;100.00
51687;BME280;37774;52.192;4.584;2022-08-19T07:25:00;99987.09;;;20.47;100.00
51687;BME280;37774;52.192;4.584;2022-08-19T07:27:29;99954.41;;;20.91;100.00
51687;BME280;37774;52.192;4.584;2022-08-19T07:29:56;99867.81;;;20.96;100.00
51687;BME280;37774;52.192;4.584;2022-08-19T07:32:22;99782.59;;;20.67;100.00
51687;BME280;37774;52.192;4.584;2022-08-19T07:34:51;99756.03;;;20.96;100.00
51687;BME280;37774;52.192;4.584;2022-08-19T07:37:19;99706.31;;;21.02;100.00
51687;BME280;37774;52.192;4.584;2022-08-19T07:39:46;99642.13;;;21.26;100.00
51687;BME280;37774;52.192;4.584;2022-08-19T07:42:13;99506.44;;;20.53;100.00
51687;BME280;37774;52.192;4.584;2022-08-19T07:44:40;99582.13;;;21.15;100.00
51687;BME280;37774;52.192;4.584;2022-08-19T07:47:08;99484.31;;;21.17;100.00
51687;BME280;37774;52.192;4.584;2022-08-19T07:49:35;99480.25;;;21.24;100.00
51687;BME280;37774;52.192;4.584;2022-08-19T07:52:05;99394.66;;;21.27;100.00
51687;BME280;37774;52.192;4.584;2022-08-19T07:54:35;99294.84;;;21.08;100.00
51687;BME280;37774;52.192;4.584;2022-08-19T07:57:03;99296.78;;;21.63;100.00
51687;BME280;37774;52.192;4.584;2022-08-19T07:59:31;99156.44;;;21.22;100.00
51687;BME280;37774;52.192;4.584;2022-08-19T08:01:58;99311.72;;;21.64;100.00
51687;BME280;37774;52.192;4.584;2022-08-19T08:04:26;99205.50;;;21.70;100.00
51687;BME280;37774;52.192;4.584;2022-08-19T08:07:10;99109.25;;;21.28;100.00
51687;BME280;37774;52.192;4.584;2022-08-19T08:09:55;99123.31;;;21.62;100.00
51687;BME280;37774;52.192;4.584;2022-08-19T08:12:24;99046.06;;;21.37;100.00
51687;BME280;37774;52.192;4.584;2022-08-19T08:14:55;99049.72;;;21.89;100.00
51687;BME280;37774;52.192;4.584;2022-08-19T08:17:26;98986.19;;;22.01;100.00
51687;BME280;37774;52.192;4.584;2022-08-19T08:19:53;98881.06;;;21.93;100.00
51687;BME280;37774;52.192;4.584;2022-08-19T08:22:22;98904.28;;;22.71;100.00
51687;BME280;37774;52.192;4.584;2022-08-19T08:25:07;98840.16;;;22.38;100.00
51687;BME280;37774;52.192;4.584;2022-08-19T08:27:35;98876.13;;;22.51;100.00
51687;BME280;37774;52.192;4.584;2022-08-19T08:30:05;98860.66;;;22.46;100.00
51687;BME280;37774;52.192;4.584;2022-08-19T08:32:35;98827.94;;;22.47;100.00
51687;BME280;37774;52.192;4.584;2022-08-19T08:35:03;98812.06;;;22.47;100.00
51687;BME280;37774;52.192;4.584;2022-08-19T08:37:29;98530.94;;;21.27;100.00
51687;BME280;37774;52.192;4.584;2022-08-19T08:39:56;98515.06;;;21.17;100.00
51687;BME280;37774;52.192;4.584;2022-08-19T08:42:28;98744.63;;;22.81;100.00
51687;BME280;37774;52.192;4.584;2022-08-19T08:45:02;98716.31;;;22.91;100.00
51687;BME280;37774;52.192;4.584;2022-08-19T08:47:35;98660.66;;;22.53;100.00
51687;BME280;37774;52.192;4.584;2022-08-19T08:50:06;98680.63;;;22.95;100.00
51687;BME280;37774;52.192;4.584;2022-08-19T08:52:39;98532.38;;;22.57;100.00
51687;BME280;37774;52.192;4.584;2022-08-19T08:55:12;98482.97;;;22.48;100.00
51687;BME280;37774;52.192;4.584;2022-08-19T08:57:50;98430.13;;;22.28;100.00
51687;BME280;37774;52.192;4.584;2022-08-19T09:00:22;98555.59;;;23.66;100.00
51687;BME280;37774;52.192;4.584;2022-08-19T09:02:52;98509.28;;;24.14;100.00
51687;BME280;37774;52.192;4.584;2022-08-19T09:05:19;98385.47;;;23.44;100.00
51687;BME280;37774;52.192;4.584;2022-08-19T09:08:02;98398.28;;;23.30;100.00
51687;BME280;37774;52.192;4.584;2022-08-19T09:10:34;98470.25;;;23.62;100.00
51687;BME280;37774;52.192;4.584;2022-08-19T09:13:13;98471.75;;;23.64;100.00
51687;BME280;37774;52.192;4.584;2022-08-19T09:15:46;98426.75;;;23.73;100.00
51687;BME280;37774;52.192;4.584;2022-08-19T09:18:15;98445.56;;;23.61;100.00
51687;BME280;37774;52.192;4.584;2022-08-19T09:20:42;98365.97;;;23.09;100.00
51687;BME280;37774;52.192;4.584;2022-08-19T09:23:09;98233.00;;;22.42;100.00
51687;BME280;37774;52.192;4.584;2022-08-19T09:25:36;98316.31;;;23.11;100.00
51687;BME280;37774;52.192;4.584;2022-08-19T09:28:07;98393.34;;;23.17;100.00
51687;BME280;37774;52.192;4.584;2022-08-19T09:30:39;98285.09;;;23.23;100.00
51687;BME280;37774;52.192;4.584;2022-08-19T09:33:06;98198.00;;;23.19;100.00
51687;BME280;37774;52.192;4.584;2022-08-19T09:35:33;98184.25;;;23.42;100.00
51687;BME280;37774;52.192;4.584;2022-08-19T09:38:00;98184.03;;;23.36;100.00
51687;BME280;37774;52.192;4.584;2022-08-19T09:40:28;98163.50;;;23.38;100.00
51687;BME280;37774;52.192;4.584;2022-08-19T09:42:55;98007.72;;;22.90;100.00
51687;BME280;37774;52.192;4.584;2022-08-19T09:45:23;98126.41;;;23.38;100.00
51687;BME280;37774;52.192;4.584;2022-08-19T09:47:51;97994.63;;;22.88;100.00
51687;BME280;37774;52.192;4.584;2022-08-19T09:50:20;97976.59;;;22.84;100.00
51687;BME280;37774;52.192;4.584;2022-08-19T09:52:47;98036.66;;;22.91;100.00
51687;BME280;37774;52.192;4.584;2022-08-19T09:55:14;98012.69;;;23.36;100.00
51687;BME280;37774;52.192;4.584;2022-08-19T09:57:41;97941.47;;;22.73;100.00
51687;BME280;37774;52.192;4.584;2022-08-19T10:00:09;98004.63;;;23.11;100.00
51687;BME280;37774;52.192;4.584;2022-08-19T10:02:37;97963.44;;;23.17;100.00
51687;BME280;37774;52.192;4.584;2022-08-19T10:05:04;97860.94;;;22.33;100.00
51687;BME280;37774;52.192;4.584;2022-08-19T10:07:51;97900.03;;;23.32;100.00
51687;BME280;37774;52.192;4.584;2022-08-19T10:10:18;97831.50;;;23.04;100.00
51687;BME280;37774;52.192;4.584;2022-08-19T10:12:45;97889.97;;;23.44;100.00
51687;BME280;37774;52.192;4.584;2022-08-19T10:15:13;97857.84;;;23.39;100.00
51687;BME280;37774;52.192;4.584;2022-08-19T10:17:42;97816.44;;;23.13;100.00
51687;BME280;37774;52.192;4.584;2022-08-19T10:20:09;97853.84;;;23.43;100.00
51687;BME280;37774;52.192;4.584;2022-08-19T10:22:36;97854.81;;;23.67;100.00
51687;BME280;37774;52.192;4.584;2022-08-19T10:25:05;97809.13;;;23.48;100.00
51687;BME280;37774;52.192;4.584;2022-08-19T10:27:32;97801.47;;;23.61;100.00
51687;BME280;37774;52.192;4.584;2022-08-19T10:29:59;97789.44;;;23.99;100.00
51687;BME280;37774;52.192;4.584;2022-08-19T10:32:26;97810.56;;;24.24;100.00
51687;BME280;37774;52.192;4.584;2022-08-19T10:34:56;97516.41;;;22.56;100.00
51687;BME280;37774;52.192;4.584;2022-08-19T10:37:23;97843.16;;;23.92;100.00
51687;BME280;37774;52.192;4.584;2022-08-19T10:39:50;97656.31;;;23.72;100.00
51687;BME280;37774;52.192;4.584;2022-08-19T10:42:17;97874.97;;;24.72;100.00
51687;BME280;37774;52.192;4.584;2022-08-19T10:44:44;97740.25;;;23.48;100.00
51687;BME280;37774;52.192;4.584;2022-08-19T10:47:13;97920.13;;;24.32;100.00
51687;BME280;37774;52.192;4.584;2022-08-19T10:49:40;97983.81;;;24.24;100.00
51687;BME280;37774;52.192;4.584;2022-08-19T10:52:22;97847.38;;;23.20;100.00
51687;BME280;37774;52.192;4.584;2022-08-19T10:55:03;98021.97;;;24.23;100.00
51687;BME280;37774;52.192;4.584;2022-08-19T10:57:48;98044.94;;;24.64;100.00
51687;BME280;37774;52.192;4.584;2022-08-19T11:00:15;98083.25;;;24.78;100.00
51687;BME280;37774;52.192;4.584;2022-08-19T11:02:42;98132.72;;;24.54;100.00
51687;BME280;37774;52.192;4.584;2022-08-19T11:05:09;98118.78;;;24.35;100.00
51687;BME280;37774;52.192;4.584;2022-08-19T11:07:39;98136.22;;;24.13;100.00
51687;BME280;37774;52.192;4.584;2022-08-19T11:10:07;98128.94;;;24.32;100.00
51687;BME280;37774;52.192;4.584;2022-08-19T11:12:36;97901.16;;;24.12;100.00
51687;BME280;37774;52.192;4.584;2022-08-19T11:15:05;98026.31;;;24.80;100.00
51687;BME280;37774;52.192;4.584;2022-08-19T11:17:33;98038.63;;;24.65;100.00
51687;BME280;37774;52.192;4.584;2022-08-19T11:19:59;97880.94;;;23.95;100.00
51687;BME280;37774;52.192;4.584;2022-08-19T11:22:30;97940.84;;;24.85;100.00
51687;BME280;37774;52.192;4.584;2022-08-19T11:24:58;97714.50;;;23.09;100.00
51687;BME280;37774;52.192;4.584;2022-08-19T11:27:25;98015.47;;;24.42;100.00
51687;BME280;37774;52.192;4.584;2022-08-19T11:29:52;97820.91;;;23.54;100.00
51687;BME280;37774;52.192;4.584;2022-08-19T11:32:19;97956.56;;;25.18;100.00
51687;BME280;37774;52.192;4.584;2022-08-19T11:34:46;97770.22;;;23.97;100.00
51687;BME280;37774;52.192;4.584;2022-08-19T11:37:12;97776.22;;;23.34;100.00
51687;BME280;37774;52.192;4.584;2022-08-19T11:39:39;98028.44;;;24.20;100.00
51687;BME280;37774;52.192;4.584;2022-08-19T11:42:07;98151.13;;;24.56;100.00
51687;BME280;37774;52.192;4.584;2022-08-19T11:44:48;97874.03;;;22.86;100.00
51687;BME280;37774;52.192;4.584;2022-08-19T11:47:15;98056.53;;;24.71;100.00
51687;BME280;37774;52.192;4.584;2022-08-19T11:49:42;97818.72;;;23.57;100.00
51687;BME280;37774;52.192;4.584;2022-08-19T11:52:08;98086.59;;;25.20;100.00
51687;BME280;37774;52.192;4.584;2022-08-19T11:54:36;97985.66;;;23.82;100.00
51687;BME280;37774;52.192;4.584;2022-08-19T11:57:03;98210.16;;;25.16;100.00
51687;BME280;37774;52.192;4.584;2022-08-19T11:59:31;98008.22;;;22.94;100.00
51687;BME280;37774;52.192;4.584;2022-08-19T12:01:58;98099.34;;;24.68;100.00
51687;BME280;37774;52.192;4.584;2022-08-19T12:04:25;98205.03;;;25.06;100.00
51687;BME280;37774;52.192;4.584;2022-08-19T12:06:52;98277.38;;;25.24;100.00
51687;BME280;37774;52.192;4.584;2022-08-19T12:09:19;98284.84;;;25.37;100.00
51687;BME280;37774;52.192;4.584;2022-08-19T12:11:47;98050.63;;;23.61;100.00
51687;BME280;37774;52.192;4.584;2022-08-19T12:14:14;98266.16;;;25.71;100.00
51687;BME280;37774;52.192;4.584;2022-08-19T12:16:44;98298.75;;;25.64;100.00
51687;BME280;37774;52.192;4.584;2022-08-19T12:19:11;98249.31;;;25.30;100.00
51687;BME280;37774;52.192;4.584;2022-08-19T12:21:38;98298.00;;;25.47;100.00
51687;BME280;37774;52.192;4.584;2022-08-19T12:24:06;98368.84;;;25.80;100.00
51687;BME280;37774;52.192;4.584;2022-08-19T12:26:33;98341.66;;;25.36;100.00
51687;BME280;37774;52.192;4.584;2022-08-19T12:29:00;98394.13;;;26.32;100.00
51687;BME280;37774;52.192;4.584;2022-08-19T12:31:28;98458.13;;;25.83;100.00
51687;BME280;37774;52.192;4.584;2022-08-19T12:33:56;98461.88;;;26.30;100.00
51687;BME280;37774;52.192;4.584;2022-08-19T12:36:23;98516.78;;;26.06;100.00
51687;BME280;37774;52.192;4.584;2022-08-19T12:38:50;98519.53;;;26.54;100.00
51687;BME280;37774;52.192;4.584;2022-08-19T12:41:18;98436.34;;;25.21;100.00
51687;BME280;37774;52.192;4.584;2022-08-19T12:43:47;98631.72;;;26.51;100.00
51687;BME280;37774;52.192;4.584;2022-08-19T12:46:16;98582.91;;;26.67;100.00
51687;BME280;37774;52.192;4.584;2022-08-19T12:48:43;98649.19;;;26.45;100.00
51687;BME280;37774;52.192;4.584;2022-08-19T12:51:13;98757.03;;;26.49;100.00
51687;BME280;37774;52.192;4.584;2022-08-19T12:53:41;98759.94;;;26.13;100.00
51687;BME280;37774;52.192;4.584;2022-08-19T12:56:10;98814.59;;;26.50;100.00